sensor_id;sensor_type;location;lat;lon;timestamp;temperature;humidity
75824;DHT22;64457;51.976;9.834;2023-02-08T00:00:53;0.70;91.80
75824;DHT22;64457;51.976;9.834;2023-02-08T00:03:21;0.70;92.10
75824;DHT22;64457;51.976;9.834;2023-02-08T00:05:48;0.70;92.20
75824;DHT22;64457;51.976;9.834;2023-02-08T00:08:16;0.70;92.00
75824;DHT22;64457;51.976;9.834;2023-02-08T00:10:44;0.70;92.00
75824;DHT22;64457;51.976;9.834;2023-02-08T00:13:11;0.60;92.10
75824;DHT22;64457;51.976;9.834;2023-02-08T00:15:41;0.60;92.20
75824;DHT22;64457;51.976;9.834;2023-02-08T00:18:09;0.60;92.20
75824;DHT22;64457;51.976;9.834;2023-02-08T00:20:37;0.60;92.40
75824;DHT22;64457;51.976;9.834;2023-02-08T00:23:05;0.70;92.30
75824;DHT22;64457;51.976;9.834;2023-02-08T00:25:33;0.70;92.10
75824;DHT22;64457;51.976;9.834;2023-02-08T00:28:01;0.70;92.10
75824;DHT22;64457;51.976;9.834;2023-02-08T00:30:29;0.70;92.10
75824;DHT22;64457;51.976;9.834;2023-02-08T00:32:58;0.60;92.10
75824;DHT22;64457;51.976;9.834;2023-02-08T00:35:26;0.60;92.30
75824;DHT22;64457;51.976;9.834;2023-02-08T00:37:54;0.60;92.30
75824;DHT22;64457;51.976;9.834;2023-02-08T00:40:22;0.50;92.20
75824;DHT22;64457;51.976;9.834;2023-02-08T00:42:50;0.60;92.20
75824;DHT22;64457;51.976;9.834;2023-02-08T00:45:18;0.50;92.00
75824;DHT22;64457;51.976;9.834;2023-02-08T00:47:45;0.50;92.50
75824;DHT22;64457;51.976;9.834;2023-02-08T00:50:15;0.40;92.70
75824;DHT22;64457;51.976;9.834;2023-02-08T00:52:42;0.40;92.90
75824;DHT22;64457;51.976;9.834;2023-02-08T00:55:10;0.40;92.90
75824;DHT22;64457;51.976;9.834;2023-02-08T00:57:37;0.50;92.90
75824;DHT22;64457;51.976;9.834;2023-02-08T01:00:06;0.60;93.10
75824;DHT22;64457;51.976;9.834;2023-02-08T01:02:36;0.60;92.60
75824;DHT22;64457;51.976;9.834;2023-02-08T01:05:04;0.50;92.70
75824;DHT22;64457;51.976;9.834;2023-02-08T01:07:34;0.20;92.90
75824;DHT22;64457;51.976;9.834;2023-02-08T01:10:02;0.40;93.30
75824;DHT22;64457;51.976;9.834;2023-02-08T01:12:30;0.40;93.10
75824;DHT22;64457;51.976;9.834;2023-02-08T01:14:58;0.50;92.90
75824;DHT22;64457;51.976;9.834;2023-02-08T01:17:25;0.60;92.80
75824;DHT22;64457;51.976;9.834;2023-02-08T01:19:53;0.60;92.60
75824;DHT22;64457;51.976;9.834;2023-02-08T01:22:20;0.60;92.70
75824;DHT22;64457;51.976;9.834;2023-02-08T01:24:49;0.50;92.60
75824;DHT22;64457;51.976;9.834;2023-02-08T01:27:17;0.60;92.60
75824;DHT22;64457;51.976;9.834;2023-02-08T01:29:45;0.60;92.60
75824;DHT22;64457;51.976;9.834;2023-02-08T01:32:12;0.40;92.60
75824;DHT22;64457;51.976;9.834;2023-02-08T01:34:40;0.50;92.70
75824;DHT22;64457;51.976;9.834;2023-02-08T01:37:07;0.50;92.70
75824;DHT22;64457;51.976;9.834;2023-02-08T01:39:35;0.40;92.70
75824;DHT22;64457;51.976;9.834;2023-02-08T01:42:04;0.40;92.80
75824;DHT22;64457;51.976;9.834;2023-02-08T01:47:52;0.50;92.70
75824;DHT22;64457;51.976;9.834;2023-02-08T01:50:25;0.40;92.70
75824;DHT22;64457;51.976;9.834;2023-02-08T01:52:57;0.30;92.80
75824;DHT22;64457;51.976;9.834;2023-02-08T01:55:28;0.10;93.10
75824;DHT22;64457;51.976;9.834;2023-02-08T01:58:01;0.20;93.20
75824;DHT22;64457;51.976;9.834;2023-02-08T02:00:31;0.10;93.20
75824;DHT22;64457;51.976;9.834;2023-02-08T02:03:00;0.20;93.20
75824;DHT22;64457;51.976;9.834;2023-02-08T02:05:33;0.20;93.10
75824;DHT22;64457;51.976;9.834;2023-02-08T02:08:07;0.30;92.90
75824;DHT22;64457;51.976;9.834;2023-02-08T02:10:36;0.20;92.80
75824;DHT22;64457;51.976;9.834;2023-02-08T02:13:10;0.30;92.90
75824;DHT22;64457;51.976;9.834;2023-02-08T02:15:41;0.40;92.80
75824;DHT22;64457;51.976;9.834;2023-02-08T02:18:10;0.40;92.70
75824;DHT22;64457;51.976;9.834;2023-02-08T02:20:53;0.50;92.60
75824;DHT22;64457;51.976;9.834;2023-02-08T02:24:16;0.40;92.30
75824;DHT22;64457;51.976;9.834;2023-02-08T02:27:28;0.30;92.40
75824;DHT22;64457;51.976;9.834;2023-02-08T02:30:35;0.30;92.40
75824;DHT22;64457;51.976;9.834;2023-02-08T02:33:26;0.20;92.60
75824;DHT22;64457;51.976;9.834;2023-02-08T02:36:05;0.30;92.60
75824;DHT22;64457;51.976;9.834;2023-02-08T02:38:47;0.30;92.50
75824;DHT22;64457;51.976;9.834;2023-02-08T02:41:28;0.20;92.50
75824;DHT22;64457;51.976;9.834;2023-02-08T02:44:24;0.10;92.40
75824;DHT22;64457;51.976;9.834;2023-02-08T02:47:00;0.00;92.60
75824;DHT22;64457;51.976;9.834;2023-02-08T02:49:38;0.00;92.60
75824;DHT22;64457;51.976;9.834;2023-02-08T02:52:16;0.10;92.50
75824;DHT22;64457;51.976;9.834;2023-02-08T02:54:49;0.10;92.40
75824;DHT22;64457;51.976;9.834;2023-02-08T02:57:23;0.10;92.50
75824;DHT22;64457;51.976;9.834;2023-02-08T02:59:53;0.10;92.40
75824;DHT22;64457;51.976;9.834;2023-02-08T03:02:21;0.10;92.20
75824;DHT22;64457;51.976;9.834;2023-02-08T03:05:06;0.10;92.30
75824;DHT22;64457;51.976;9.834;2023-02-08T03:07:47;0.10;92.20
75824;DHT22;64457;51.976;9.834;2023-02-08T03:10:41;0.10;92.20
75824;DHT22;64457;51.976;9.834;2023-02-08T03:13:25;0.20;92.30
75824;DHT22;64457;51.976;9.834;2023-02-08T03:16:04;0.20;92.30
75824;DHT22;64457;51.976;9.834;2023-02-08T03:18:49;0.10;92.20
75824;DHT22;64457;51.976;9.834;2023-02-08T03:21:31;0.10;92.30
75824;DHT22;64457;51.976;9.834;2023-02-08T03:24:12;0.00;92.20
75824;DHT22;64457;51.976;9.834;2023-02-08T03:26:54;0.10;92.30
75824;DHT22;64457;51.976;9.834;2023-02-08T03:29:30;0.00;92.30
75824;DHT22;64457;51.976;9.834;2023-02-08T03:32:08;0.00;92.40
75824;DHT22;64457;51.976;9.834;2023-02-08T03:34:42;0.00;92.40
75824;DHT22;64457;51.976;9.834;2023-02-08T03:37:17;0.00;92.40
75824;DHT22;64457;51.976;9.834;2023-02-08T03:39:48;0.00;92.40
75824;DHT22;64457;51.976;9.834;2023-02-08T03:42:22;-0.10;92.50
75824;DHT22;64457;51.976;9.834;2023-02-08T03:44:54;-0.10;92.50
75824;DHT22;64457;51.976;9.834;2023-02-08T03:47:27;-0.20;92.80
75824;DHT22;64457;51.976;9.834;2023-02-08T03:49:59;-0.30;92.80
75824;DHT22;64457;51.976;9.834;2023-02-08T03:52:32;-0.30;92.90
75824;DHT22;64457;51.976;9.834;2023-02-08T03:55:03;-0.30;92.90
75824;DHT22;64457;51.976;9.834;2023-02-08T03:57:34;-0.30;93.10
75824;DHT22;64457;51.976;9.834;2023-02-08T04:00:07;-0.30;93.30
75824;DHT22;64457;51.976;9.834;2023-02-08T04:02:41;-0.30;93.30
75824;DHT22;64457;51.976;9.834;2023-02-08T04:05:13;-0.30;93.30
75824;DHT22;64457;51.976;9.834;2023-02-08T04:07:42;-0.60;93.30
75824;DHT22;64457;51.976;9.834;2023-02-08T04:10:09;-0.70;93.80
75824;DHT22;64457;51.976;9.834;2023-02-08T04:12:37;-1.00;94.10
75824;DHT22;64457;51.976;9.834;2023-02-08T04:15:05;-1.00;94.60
75824;DHT22;64457;51.976;9.834;2023-02-08T04:17:33;-1.10;94.70
75824;DHT22;64457;51.976;9.834;2023-02-08T04:20:00;-1.10;94.90
75824;DHT22;64457;51.976;9.834;2023-02-08T04:22:28;-0.80;94.70
75824;DHT22;64457;51.976;9.834;2023-02-08T04:24:57;-0.60;94.30
75824;DHT22;64457;51.976;9.834;2023-02-08T04:27:25;-0.50;93.80
75824;DHT22;64457;51.976;9.834;2023-02-08T04:29:52;-0.50;93.60
75824;DHT22;64457;51.976;9.834;2023-02-08T04:32:19;-1.10;94.00
75824;DHT22;64457;51.976;9.834;2023-02-08T04:34:47;-1.20;94.60
75824;DHT22;64457;51.976;9.834;2023-02-08T04:37:15;-1.10;94.70
75824;DHT22;64457;51.976;9.834;2023-02-08T04:39:42;-1.00;94.50
75824;DHT22;64457;51.976;9.834;2023-02-08T04:42:11;-0.80;94.20
75824;DHT22;64457;51.976;9.834;2023-02-08T04:44:38;-0.70;93.90
75824;DHT22;64457;51.976;9.834;2023-02-08T04:47:05;-0.80;93.80
75824;DHT22;64457;51.976;9.834;2023-02-08T04:49:33;-0.70;93.70
75824;DHT22;64457;51.976;9.834;2023-02-08T04:52:00;-0.70;93.50
75824;DHT22;64457;51.976;9.834;2023-02-08T04:54:29;-0.70;93.50
75824;DHT22;64457;51.976;9.834;2023-02-08T04:56:56;-0.70;93.30
75824;DHT22;64457;51.976;9.834;2023-02-08T04:59:25;-0.60;93.60
75824;DHT22;64457;51.976;9.834;2023-02-08T05:01:53;-0.60;93.50
75824;DHT22;64457;51.976;9.834;2023-02-08T05:04:20;-0.70;93.50
75824;DHT22;64457;51.976;9.834;2023-02-08T05:06:48;-0.70;93.40
75824;DHT22;64457;51.976;9.834;2023-02-08T05:09:15;-0.70;93.60
75824;DHT22;64457;51.976;9.834;2023-02-08T05:11:42;-0.70;93.60
75824;DHT22;64457;51.976;9.834;2023-02-08T05:14:10;-0.70;93.60
75824;DHT22;64457;51.976;9.834;2023-02-08T05:16:39;-0.80;93.40
75824;DHT22;64457;51.976;9.834;2023-02-08T05:19:06;-0.70;93.50
75824;DHT22;64457;51.976;9.834;2023-02-08T05:21:35;-0.70;93.60
75824;DHT22;64457;51.976;9.834;2023-02-08T05:24:03;-0.60;93.50
75824;DHT22;64457;51.976;9.834;2023-02-08T05:26:31;-0.60;93.40
75824;DHT22;64457;51.976;9.834;2023-02-08T05:28:59;-0.60;93.30
75824;DHT22;64457;51.976;9.834;2023-02-08T05:31:26;-0.60;93.20
75824;DHT22;64457;51.976;9.834;2023-02-08T05:33:55;-0.60;93.20
75824;DHT22;64457;51.976;9.834;2023-02-08T05:36:23;-0.60;93.10
75824;DHT22;64457;51.976;9.834;2023-02-08T05:38:50;-0.60;93.00
75824;DHT22;64457;51.976;9.834;2023-02-08T05:41:18;-0.50;92.90
75824;DHT22;64457;51.976;9.834;2023-02-08T05:43:46;-0.50;93.00
75824;DHT22;64457;51.976;9.834;2023-02-08T05:46:13;-0.60;92.90
75824;DHT22;64457;51.976;9.834;2023-02-08T05:48:41;-0.60;93.10
75824;DHT22;64457;51.976;9.834;2023-02-08T05:51:10;-0.70;93.50
75824;DHT22;64457;51.976;9.834;2023-02-08T05:53:38;-0.60;93.20
75824;DHT22;64457;51.976;9.834;2023-02-08T05:56:06;-0.70;93.20
75824;DHT22;64457;51.976;9.834;2023-02-08T05:58:33;-0.70;93.60
75824;DHT22;64457;51.976;9.834;2023-02-08T06:01:06;-0.70;93.40
75824;DHT22;64457;51.976;9.834;2023-02-08T06:03:35;-0.80;93.60
75824;DHT22;64457;51.976;9.834;2023-02-08T06:06:03;-0.90;93.70
75824;DHT22;64457;51.976;9.834;2023-02-08T06:08:32;-0.80;93.70
75824;DHT22;64457;51.976;9.834;2023-02-08T06:11:00;-0.70;93.60
75824;DHT22;64457;51.976;9.834;2023-02-08T06:13:27;-0.70;93.40
75824;DHT22;64457;51.976;9.834;2023-02-08T06:15:55;-0.70;93.20
75824;DHT22;64457;51.976;9.834;2023-02-08T06:18:23;-0.80;93.40
75824;DHT22;64457;51.976;9.834;2023-02-08T06:20:51;-0.90;93.50
75824;DHT22;64457;51.976;9.834;2023-02-08T06:23:19;-0.90;93.70
75824;DHT22;64457;51.976;9.834;2023-02-08T06:25:48;-0.80;93.60
75824;DHT22;64457;51.976;9.834;2023-02-08T06:28:17;-0.80;93.40
75824;DHT22;64457;51.976;9.834;2023-02-08T06:30:44;-0.80;93.50
75824;DHT22;64457;51.976;9.834;2023-02-08T06:33:12;-1.00;93.50
75824;DHT22;64457;51.976;9.834;2023-02-08T06:35:39;-1.00;94.00
75824;DHT22;64457;51.976;9.834;2023-02-08T06:38:07;-0.80;94.10
75824;DHT22;64457;51.976;9.834;2023-02-08T06:40:34;-0.70;93.90
75824;DHT22;64457;51.976;9.834;2023-02-08T06:43:03;-0.70;93.60
75824;DHT22;64457;51.976;9.834;2023-02-08T06:45:31;-0.70;93.50
75824;DHT22;64457;51.976;9.834;2023-02-08T06:47:58;-0.90;93.50
75824;DHT22;64457;51.976;9.834;2023-02-08T06:50:26;-1.30;93.70
75824;DHT22;64457;51.976;9.834;2023-02-08T06:52:54;-1.00;94.30
75824;DHT22;64457;51.976;9.834;2023-02-08T06:55:22;-0.80;93.90
75824;DHT22;64457;51.976;9.834;2023-02-08T06:57:52;-0.70;93.60
75824;DHT22;64457;51.976;9.834;2023-02-08T07:00:21;-0.50;93.40
75824;DHT22;64457;51.976;9.834;2023-02-08T07:02:49;-0.50;93.20
75824;DHT22;64457;51.976;9.834;2023-02-08T07:05:17;-0.40;93.20
75824;DHT22;64457;51.976;9.834;2023-02-08T07:07:44;-0.40;93.70
75824;DHT22;64457;51.976;9.834;2023-02-08T07:10:13;-0.40;93.10
75824;DHT22;64457;51.976;9.834;2023-02-08T07:12:41;-0.50;93.10
75824;DHT22;64457;51.976;9.834;2023-02-08T07:15:08;-0.40;93.10
75824;DHT22;64457;51.976;9.834;2023-02-08T07:17:39;-0.40;93.10
75824;DHT22;64457;51.976;9.834;2023-02-08T07:20:08;-0.30;93.00
75824;DHT22;64457;51.976;9.834;2023-02-08T07:22:37;-0.20;93.10
75824;DHT22;64457;51.976;9.834;2023-02-08T07:25:11;-0.10;92.90
75824;DHT22;64457;51.976;9.834;2023-02-08T07:27:43;-0.10;92.90
75824;DHT22;64457;51.976;9.834;2023-02-08T07:30:11;0.00;92.90
75824;DHT22;64457;51.976;9.834;2023-02-08T07:32:41;0.00;92.70
75824;DHT22;64457;51.976;9.834;2023-02-08T07:35:08;0.10;92.70
75824;DHT22;64457;51.976;9.834;2023-02-08T07:37:36;0.00;92.70
75824;DHT22;64457;51.976;9.834;2023-02-08T07:40:03;0.00;92.90
75824;DHT22;64457;51.976;9.834;2023-02-08T07:42:32;0.10;92.90
75824;DHT22;64457;51.976;9.834;2023-02-08T07:44:59;0.10;92.70
75824;DHT22;64457;51.976;9.834;2023-02-08T07:47:28;0.10;92.80
75824;DHT22;64457;51.976;9.834;2023-02-08T07:49:57;0.20;92.80
75824;DHT22;64457;51.976;9.834;2023-02-08T07:52:25;0.30;92.70
75824;DHT22;64457;51.976;9.834;2023-02-08T07:54:52;0.30;92.90
75824;DHT22;64457;51.976;9.834;2023-02-08T07:57:20;0.50;92.70
75824;DHT22;64457;51.976;9.834;2023-02-08T07:59:49;0.40;92.60
75824;DHT22;64457;51.976;9.834;2023-02-08T08:02:16;0.40;92.50
75824;DHT22;64457;51.976;9.834;2023-02-08T08:04:44;0.50;92.30
75824;DHT22;64457;51.976;9.834;2023-02-08T08:07:13;0.60;92.30
75824;DHT22;64457;51.976;9.834;2023-02-08T08:09:41;0.60;92.20
75824;DHT22;64457;51.976;9.834;2023-02-08T08:12:09;0.70;92.50
75824;DHT22;64457;51.976;9.834;2023-02-08T08:14:36;0.70;92.40
75824;DHT22;64457;51.976;9.834;2023-02-08T08:17:04;0.80;92.60
75824;DHT22;64457;51.976;9.834;2023-02-08T08:19:31;0.80;92.60
75824;DHT22;64457;51.976;9.834;2023-02-08T08:21:59;0.90;92.50
75824;DHT22;64457;51.976;9.834;2023-02-08T08:24:28;1.00;92.40
75824;DHT22;64457;51.976;9.834;2023-02-08T08:26:56;1.00;92.40
75824;DHT22;64457;51.976;9.834;2023-02-08T08:29:24;1.00;92.80
75824;DHT22;64457;51.976;9.834;2023-02-08T08:31:51;1.10;92.50
75824;DHT22;64457;51.976;9.834;2023-02-08T08:34:19;1.30;92.50
75824;DHT22;64457;51.976;9.834;2023-02-08T08:36:49;1.40;92.20
75824;DHT22;64457;51.976;9.834;2023-02-08T08:39:16;1.50;92.00
75824;DHT22;64457;51.976;9.834;2023-02-08T08:41:45;1.60;91.90
75824;DHT22;64457;51.976;9.834;2023-02-08T08:44:13;1.60;91.90
75824;DHT22;64457;51.976;9.834;2023-02-08T08:46:40;1.60;91.50
75824;DHT22;64457;51.976;9.834;2023-02-08T08:49:08;1.70;91.60
75824;DHT22;64457;51.976;9.834;2023-02-08T08:51:36;1.90;91.60
75824;DHT22;64457;51.976;9.834;2023-02-08T08:54:04;2.00;91.50
75824;DHT22;64457;51.976;9.834;2023-02-08T08:56:32;2.10;91.00
75824;DHT22;64457;51.976;9.834;2023-02-08T08:59:01;2.40;91.20
75824;DHT22;64457;51.976;9.834;2023-02-08T09:01:29;2.50;91.00
75824;DHT22;64457;51.976;9.834;2023-02-08T09:03:57;2.70;91.00
75824;DHT22;64457;51.976;9.834;2023-02-08T09:06:24;2.60;89.00
75824;DHT22;64457;51.976;9.834;2023-02-08T09:08:52;2.10;87.00
75824;DHT22;64457;51.976;9.834;2023-02-08T09:11:19;2.20;87.50
75824;DHT22;64457;51.976;9.834;2023-02-08T09:13:47;2.30;86.60
75824;DHT22;64457;51.976;9.834;2023-02-08T09:16:18;2.30;86.20
75824;DHT22;64457;51.976;9.834;2023-02-08T09:18:46;2.30;87.20
75824;DHT22;64457;51.976;9.834;2023-02-08T09:21:15;2.50;87.40
75824;DHT22;64457;51.976;9.834;2023-02-08T09:23:44;2.70;87.60
75824;DHT22;64457;51.976;9.834;2023-02-08T09:26:15;3.10;87.80
75824;DHT22;64457;51.976;9.834;2023-02-08T09:28:44;2.90;85.50
75824;DHT22;64457;51.976;9.834;2023-02-08T09:31:16;2.70;87.00
75824;DHT22;64457;51.976;9.834;2023-02-08T09:33:48;3.00;86.80
75824;DHT22;64457;51.976;9.834;2023-02-08T09:36:16;3.40;86.40
75824;DHT22;64457;51.976;9.834;2023-02-08T09:38:44;3.80;85.80
75824;DHT22;64457;51.976;9.834;2023-02-08T09:41:23;4.70;82.60
75824;DHT22;64457;51.976;9.834;2023-02-08T09:44:09;5.90;80.80
75824;DHT22;64457;51.976;9.834;2023-02-08T09:46:49;7.20;76.60
75824;DHT22;64457;51.976;9.834;2023-02-08T09:49:23;8.10;75.40
75824;DHT22;64457;51.976;9.834;2023-02-08T09:51:55;8.10;73.90
75824;DHT22;64457;51.976;9.834;2023-02-08T09:54:28;9.00;72.90
75824;DHT22;64457;51.976;9.834;2023-02-08T09:57:00;10.20;70.40
75824;DHT22;64457;51.976;9.834;2023-02-08T09:59:33;10.20;60.60
75824;DHT22;64457;51.976;9.834;2023-02-08T10:02:13;10.80;65.70
75824;DHT22;64457;51.976;9.834;2023-02-08T10:04:56;11.00;61.50
75824;DHT22;64457;51.976;9.834;2023-02-08T10:07:25;12.10;65.60
75824;DHT22;64457;51.976;9.834;2023-02-08T10:09:55;13.20;63.90
75824;DHT22;64457;51.976;9.834;2023-02-08T10:12:32;14.10;57.60
75824;DHT22;64457;51.976;9.834;2023-02-08T10:15:13;13.90;57.10
75824;DHT22;64457;51.976;9.834;2023-02-08T10:18:08;14.70;58.10
75824;DHT22;64457;51.976;9.834;2023-02-08T10:20:53;15.20;54.40
75824;DHT22;64457;51.976;9.834;2023-02-08T10:23:42;14.60;49.90
75824;DHT22;64457;51.976;9.834;2023-02-08T10:26:25;13.10;54.10
75824;DHT22;64457;51.976;9.834;2023-02-08T10:29:29;12.50;53.80
75824;DHT22;64457;51.976;9.834;2023-02-08T10:32:20;12.50;51.30
75824;DHT22;64457;51.976;9.834;2023-02-08T10:34:59;13.60;58.10
75824;DHT22;64457;51.976;9.834;2023-02-08T10:37:31;14.20;57.50
75824;DHT22;64457;51.976;9.834;2023-02-08T10:42:45;14.50;52.70
75824;DHT22;64457;51.976;9.834;2023-02-08T10:45:21;14.40;55.00
75824;DHT22;64457;51.976;9.834;2023-02-08T10:47:52;14.70;55.10
75824;DHT22;64457;51.976;9.834;2023-02-08T10:50:27;13.50;50.90
75824;DHT22;64457;51.976;9.834;2023-02-08T10:52:56;13.60;55.30
75824;DHT22;64457;51.976;9.834;2023-02-08T10:55:24;12.90;53.50
75824;DHT22;64457;51.976;9.834;2023-02-08T10:57:56;11.60;52.90
75824;DHT22;64457;51.976;9.834;2023-02-08T11:00:27;11.40;54.70
75824;DHT22;64457;51.976;9.834;2023-02-08T11:03:00;12.20;57.10
75824;DHT22;64457;51.976;9.834;2023-02-08T11:05:35;12.60;56.50
75824;DHT22;64457;51.976;9.834;2023-02-08T11:08:07;12.40;55.60
75824;DHT22;64457;51.976;9.834;2023-02-08T11:10:37;11.70;51.40
75824;DHT22;64457;51.976;9.834;2023-02-08T11:13:14;11.50;52.40
75824;DHT22;64457;51.976;9.834;2023-02-08T11:15:45;12.20;55.20
75824;DHT22;64457;51.976;9.834;2023-02-08T11:18:19;12.70;53.90
75824;DHT22;64457;51.976;9.834;2023-02-08T11:20:51;11.80;50.80
75824;DHT22;64457;51.976;9.834;2023-02-08T11:23:22;11.80;51.20
75824;DHT22;64457;51.976;9.834;2023-02-08T11:25:52;11.90;52.30
75824;DHT22;64457;51.976;9.834;2023-02-08T11:28:23;11.80;53.40
75824;DHT22;64457;51.976;9.834;2023-02-08T11:30:59;10.90;53.80
75824;DHT22;64457;51.976;9.834;2023-02-08T11:33:28;11.00;52.20
75824;DHT22;64457;51.976;9.834;2023-02-08T11:36:02;10.30;53.50
75824;DHT22;64457;51.976;9.834;2023-02-08T11:38:33;9.40;52.10
75824;DHT22;64457;51.976;9.834;2023-02-08T11:41:04;9.80;54.20
75824;DHT22;64457;51.976;9.834;2023-02-08T11:43:41;10.10;53.50
75824;DHT22;64457;51.976;9.834;2023-02-08T11:46:10;9.80;52.90
75824;DHT22;64457;51.976;9.834;2023-02-08T11:48:42;9.70;52.20
75824;DHT22;64457;51.976;9.834;2023-02-08T11:51:22;10.20;52.10
75824;DHT22;64457;51.976;9.834;2023-02-08T11:53:53;10.40;51.90
75824;DHT22;64457;51.976;9.834;2023-02-08T11:56:23;9.60;53.80
75824;DHT22;64457;51.976;9.834;2023-02-08T11:59:01;9.50;54.50
75824;DHT22;64457;51.976;9.834;2023-02-08T12:01:41;9.10;53.50
75824;DHT22;64457;51.976;9.834;2023-02-08T12:04:11;8.80;54.50
75824;DHT22;64457;51.976;9.834;2023-02-08T12:07:08;8.50;54.90
75824;DHT22;64457;51.976;9.834;2023-02-08T12:13:12;8.70;55.20
75824;DHT22;64457;51.976;9.834;2023-02-08T12:15:55;9.50;56.60
75824;DHT22;64457;51.976;9.834;2023-02-08T12:21:43;9.60;51.80
75824;DHT22;64457;51.976;9.834;2023-02-08T12:24:20;10.20;52.70
75824;DHT22;64457;51.976;9.834;2023-02-08T12:27:06;9.30;50.60
75824;DHT22;64457;51.976;9.834;2023-02-08T12:29:46;9.20;52.80
75824;DHT22;64457;51.976;9.834;2023-02-08T12:32:30;9.60;52.40
75824;DHT22;64457;51.976;9.834;2023-02-08T12:38:21;10.00;53.30
75824;DHT22;64457;51.976;9.834;2023-02-08T12:41:18;9.40;53.90
75824;DHT22;64457;51.976;9.834;2023-02-08T12:43:53;9.80;56.60
75824;DHT22;64457;51.976;9.834;2023-02-08T12:46:46;9.90;54.50
75824;DHT22;64457;51.976;9.834;2023-02-08T12:49:42;9.60;52.60
75824;DHT22;64457;51.976;9.834;2023-02-08T12:52:29;9.90;52.00
75824;DHT22;64457;51.976;9.834;2023-02-08T12:55:04;9.80;54.10
75824;DHT22;64457;51.976;9.834;2023-02-08T12:57:43;10.20;51.80
75824;DHT22;64457;51.976;9.834;2023-02-08T13:00:17;9.70;51.60
75824;DHT22;64457;51.976;9.834;2023-02-08T13:02:52;10.10;56.40
75824;DHT22;64457;51.976;9.834;2023-02-08T13:05:29;10.40;55.10
75824;DHT22;64457;51.976;9.834;2023-02-08T13:08:05;10.70;53.80
75824;DHT22;64457;51.976;9.834;2023-02-08T13:10:37;10.90;54.70
75824;DHT22;64457;51.976;9.834;2023-02-08T13:13:12;10.30;53.10
75824;DHT22;64457;51.976;9.834;2023-02-08T13:15:45;10.60;55.10
75824;DHT22;64457;51.976;9.834;2023-02-08T13:18:17;10.30;54.30
75824;DHT22;64457;51.976;9.834;2023-02-08T13:20:50;10.00;52.50
75824;DHT22;64457;51.976;9.834;2023-02-08T13:23:22;10.40;55.20
75824;DHT22;64457;51.976;9.834;2023-02-08T13:25:55;10.80;55.50
75824;DHT22;64457;51.976;9.834;2023-02-08T13:28:31;10.80;53.40
75824;DHT22;64457;51.976;9.834;2023-02-08T13:31:02;11.00;54.80
75824;DHT22;64457;51.976;9.834;2023-02-08T13:33:40;11.20;54.30
75824;DHT22;64457;51.976;9.834;2023-02-08T13:36:20;11.50;53.40
75824;DHT22;64457;51.976;9.834;2023-02-08T13:38:51;11.70;52.60
75824;DHT22;64457;51.976;9.834;2023-02-08T13:41:21;11.20;52.50
75824;DHT22;64457;51.976;9.834;2023-02-08T13:43:56;11.60;50.80
75824;DHT22;64457;51.976;9.834;2023-02-08T13:46:26;11.30;50.20
75824;DHT22;64457;51.976;9.834;2023-02-08T13:49:00;11.30;49.50
75824;DHT22;64457;51.976;9.834;2023-02-08T13:51:51;11.30;52.10
75824;DHT22;64457;51.976;9.834;2023-02-08T13:54:19;11.20;51.70
75824;DHT22;64457;51.976;9.834;2023-02-08T13:56:48;11.10;49.80
75824;DHT22;64457;51.976;9.834;2023-02-08T13:59:27;10.90;47.30
75824;DHT22;64457;51.976;9.834;2023-02-08T14:08:06;10.70;52.20
75824;DHT22;64457;51.976;9.834;2023-02-08T14:10:50;11.20;50.40
75824;DHT22;64457;51.976;9.834;2023-02-08T14:13:29;11.50;48.30
75824;DHT22;64457;51.976;9.834;2023-02-08T14:16:26;11.70;51.80
75824;DHT22;64457;51.976;9.834;2023-02-08T14:18:57;11.90;50.60
75824;DHT22;64457;51.976;9.834;2023-02-08T14:21:32;11.50;48.50
75824;DHT22;64457;51.976;9.834;2023-02-08T14:24:05;11.60;49.10
75824;DHT22;64457;51.976;9.834;2023-02-08T14:26:35;11.60;47.80
75824;DHT22;64457;51.976;9.834;2023-02-08T14:29:04;11.30;49.40
75824;DHT22;64457;51.976;9.834;2023-02-08T14:31:50;11.30;48.40
75824;DHT22;64457;51.976;9.834;2023-02-08T14:34:22;11.20;52.00
75824;DHT22;64457;51.976;9.834;2023-02-08T14:37:00;10.90;47.70
75824;DHT22;64457;51.976;9.834;2023-02-08T14:39:32;10.40;49.00
75824;DHT22;64457;51.976;9.834;2023-02-08T14:42:02;10.20;48.30
75824;DHT22;64457;51.976;9.834;2023-02-08T14:45:01;9.90;49.10
75824;DHT22;64457;51.976;9.834;2023-02-08T14:48:18;9.50;52.00
75824;DHT22;64457;51.976;9.834;2023-02-08T14:50:52;9.30;51.60
75824;DHT22;64457;51.976;9.834;2023-02-08T14:53:27;9.40;51.50
75824;DHT22;64457;51.976;9.834;2023-02-08T14:56:02;9.30;51.20
75824;DHT22;64457;51.976;9.834;2023-02-08T14:58:34;9.70;55.10
75824;DHT22;64457;51.976;9.834;2023-02-08T15:01:06;9.90;52.00
75824;DHT22;64457;51.976;9.834;2023-02-08T15:03:41;10.20;51.60
75824;DHT22;64457;51.976;9.834;2023-02-08T15:09:25;10.60;51.10
75824;DHT22;64457;51.976;9.834;2023-02-08T15:11:59;11.00;52.80
75824;DHT22;64457;51.976;9.834;2023-02-08T15:14:30;11.20;50.50
75824;DHT22;64457;51.976;9.834;2023-02-08T15:17:01;10.70;48.90
75824;DHT22;64457;51.976;9.834;2023-02-08T15:19:33;10.10;49.10
75824;DHT22;64457;51.976;9.834;2023-02-08T15:22:16;8.90;51.80
75824;DHT22;64457;51.976;9.834;2023-02-08T15:24:52;9.00;54.20
75824;DHT22;64457;51.976;9.834;2023-02-08T15:27:23;9.00;55.00
75824;DHT22;64457;51.976;9.834;2023-02-08T15:29:53;9.20;53.90
75824;DHT22;64457;51.976;9.834;2023-02-08T15:32:24;9.20;54.90
75824;DHT22;64457;51.976;9.834;2023-02-08T15:34:55;9.40;53.80
75824;DHT22;64457;51.976;9.834;2023-02-08T15:37:25;9.10;53.30
75824;DHT22;64457;51.976;9.834;2023-02-08T15:39:55;9.00;54.00
75824;DHT22;64457;51.976;9.834;2023-02-08T15:42:26;8.40;54.40
75824;DHT22;64457;51.976;9.834;2023-02-08T15:44:55;8.30;54.40
75824;DHT22;64457;51.976;9.834;2023-02-08T15:47:27;8.30;55.10
75824;DHT22;64457;51.976;9.834;2023-02-08T15:50:16;8.10;55.30
75824;DHT22;64457;51.976;9.834;2023-02-08T15:52:47;8.20;56.70
75824;DHT22;64457;51.976;9.834;2023-02-08T15:55:16;8.40;56.30
75824;DHT22;64457;51.976;9.834;2023-02-08T15:57:47;8.00;56.30
75824;DHT22;64457;51.976;9.834;2023-02-08T16:00:23;7.90;56.60
75824;DHT22;64457;51.976;9.834;2023-02-08T16:02:56;7.70;57.50
75824;DHT22;64457;51.976;9.834;2023-02-08T16:05:27;7.70;57.40
75824;DHT22;64457;51.976;9.834;2023-02-08T16:07:57;7.50;58.60
75824;DHT22;64457;51.976;9.834;2023-02-08T16:10:30;7.30;58.20
75824;DHT22;64457;51.976;9.834;2023-02-08T16:13:04;7.10;58.10
75824;DHT22;64457;51.976;9.834;2023-02-08T16:15:41;7.00;58.60
75824;DHT22;64457;51.976;9.834;2023-02-08T16:18:30;6.90;58.60
75824;DHT22;64457;51.976;9.834;2023-02-08T16:21:01;6.80;59.00
75824;DHT22;64457;51.976;9.834;2023-02-08T16:23:31;6.60;59.20
75824;DHT22;64457;51.976;9.834;2023-02-08T16:26:11;6.60;61.50
75824;DHT22;64457;51.976;9.834;2023-02-08T16:28:43;6.30;62.70
75824;DHT22;64457;51.976;9.834;2023-02-08T16:31:21;6.20;61.30
75824;DHT22;64457;51.976;9.834;2023-02-08T16:33:59;5.90;61.30
75824;DHT22;64457;51.976;9.834;2023-02-08T16:36:36;5.70;63.30
75824;DHT22;64457;51.976;9.834;2023-02-08T16:39:33;5.50;64.70